TimePST,TemperatureF,Dew PointF,Humidity,Sea Level PressureIn,VisibilityMPH,Wind Direction,Wind SpeedMPH,Gust SpeedMPH,PrecipitationIn,Events,Conditions,WindDirDegrees,DateUTC
12:53 AM,61.0,48.9,64,29.89,10.0,Variable,5.8,-,N/A,,Overcast,0,2012-11-09 08:53:00
1:53 AM,61.0,48.0,62,29.88,10.0,SSW,3.5,-,N/A,,Overcast,210,2012-11-09 09:53:00
2:53 AM,59.0,48.9,69,29.88,10.0,SSW,3.5,-,N/A,,Scattered Clouds,200,2012-11-09 10:53:00
3:16 AM,59.0,48.2,67,29.88,10.0,Calm,Calm,-,N/A,,Mostly Cloudy,0,2012-11-09 11:16:00
3:53 AM,57.9,48.0,70,29.88,10.0,Variable,3.5,-,N/A,,Scattered Clouds,0,2012-11-09 11:53:00
4:29 AM,57.2,48.2,72,29.89,10.0,Calm,Calm,-,N/A,,Mostly Cloudy,0,2012-11-09 12:29:00
4:53 AM,57.9,48.9,72,29.89,10.0,Calm,Calm,-,N/A,,Overcast,0,2012-11-09 12:53:00
5:33 AM,57.2,48.2,72,29.89,10.0,South,3.5,-,N/A,,Overcast,180,2012-11-09 13:33:00
5:53 AM,59.0,48.9,69,29.89,10.0,Calm,Calm,-,N/A,,Overcast,0,2012-11-09 13:53:00
6:53 AM,59.0,48.9,69,29.91,10.0,Calm,Calm,-,N/A,,Overcast,0,2012-11-09 14:53:00
7:53 AM,60.1,43.0,53,29.92,10.0,Variable,4.6,-,N/A,,Mostly Cloudy,0,2012-11-09 15:53:00
8:53 AM,62.1,43.0,50,29.92,10.0,SW,8.1,-,N/A,,Clear,230,2012-11-09 16:53:00
9:53 AM,64.0,41.0,43,29.93,10.0,SW,8.1,-,N/A,,Scattered Clouds,230,2012-11-09 17:53:00
10:53 AM,64.9,41.0,42,29.92,10.0,Variable,6.9,-,N/A,,Scattered Clouds,0,2012-11-09 18:53:00
11:53 AM,64.9,39.9,40,29.90,10.0,Variable,6.9,-,N/A,,Partly Cloudy,0,2012-11-09 19:53:00
12:53 PM,66.0,37.9,36,29.88,10.0,WSW,8.1,16.1,N/A,,Clear,250,2012-11-09 20:53:00
1:53 PM,66.0,39.9,38,29.86,10.0,WSW,9.2,20.7,N/A,,Clear,240,2012-11-09 21:53:00
2:53 PM,64.9,37.0,36,29.86,10.0,West,8.1,18.4,N/A,,Clear,260,2012-11-09 22:53:00
3:53 PM,63.0,39.0,41,29.86,10.0,WSW,10.4,19.6,N/A,,Clear,250,2012-11-09 23:53:00
4:53 PM,61.0,39.9,46,29.87,10.0,West,8.1,-,N/A,,Clear,280,2012-11-10 00:53:00
5:53 PM,60.1,41.0,49,29.89,10.0,West,5.8,-,N/A,,Clear,260,2012-11-10 01:53:00
6:53 PM,59.0,42.1,53,29.90,10.0,West,9.2,-,N/A,,Clear,280,2012-11-10 02:53:00
7:53 PM,57.9,43.0,58,29.91,10.0,West,4.6,-,N/A,,Clear,280,2012-11-10 03:53:00
8:53 PM,57.9,43.0,58,29.93,10.0,Calm,Calm,-,N/A,,Clear,0,2012-11-10 04:53:00
9:53 PM,57.0,42.1,57,29.94,10.0,Calm,Calm,-,N/A,,Clear,0,2012-11-10 05:53:00
10:53 PM,55.0,42.1,62,29.93,10.0,Calm,Calm,-,N/A,,Clear,0,2012-11-10 06:53:00
11:53 PM,52.0,43.0,71,29.93,10.0,Calm,Calm,-,N/A,,Clear,0,2012-11-10 07:53:00